Time;durP1;ratioP1;P1;durP2;ratioP2;P2;SDS_P1;SDS_P2;PMS_P1;PMS_P2;Temp;Humidity;BMP_temperature;BMP_pressure;BME280_temperature;BME280_humidity;BME280_pressure;Samples;Min_cycle;Max_cycle;Signal;HPM_P1;HPM_P2
2023/09/23 00:01:33;;;;;;;0.40;0.40;;;14.80;99.90;;;;;;4436008;32;20104;-62
2023/09/23 00:03:58;;;;;;;0.40;0.40;;;14.70;99.90;;;;;;4435277;32;20176;-62
2023/09/23 00:06:24;;;;;;;1.85;0.90;;;14.70;99.90;;;;;;4436331;32;20457;-62
2023/09/23 00:08:50;;;;;;;2.12;0.73;;;14.70;99.90;;;;;;4435806;32;20093;-63
2023/09/23 00:11:16;;;;;;;0.52;0.52;;;14.80;99.90;;;;;;4436581;32;20101;-62
2023/09/23 00:13:42;;;;;;;0.30;0.30;;;14.90;99.90;;;;;;4435137;32;20418;-63
2023/09/23 00:16:09;;;;;;;0.40;0.40;;;14.90;99.90;;;;;;4436429;32;20078;-62
2023/09/23 00:18:35;;;;;;;0.40;0.40;;;14.90;99.90;;;;;;4422182;32;20058;-61
2023/09/23 00:21:02;;;;;;;0.55;0.55;;;14.90;99.90;;;;;;4434832;32;20056;-62
2023/09/23 00:23:28;;;;;;;0.40;0.40;;;14.80;99.90;;;;;;4435817;32;20080;-62
2023/09/23 00:25:54;;;;;;;0.40;0.40;;;14.90;99.90;;;;;;4440367;32;20111;-61
2023/09/23 00:28:20;;;;;;;0.25;0.25;;;14.90;99.90;;;;;;4439574;32;20077;-61
2023/09/23 00:30:46;;;;;;;0.30;0.30;;;15.00;99.90;;;;;;4436560;32;20138;-61
2023/09/23 00:33:16;;;;;;;0.30;0.30;;;15.00;99.90;;;;;;4433156;32;20124;-62
2023/09/23 00:35:44;;;;;;;0.40;0.40;;;15.10;99.90;;;;;;4435813;32;20093;-63
2023/09/23 00:38:11;;;;;;;0.40;0.40;;;15.20;99.90;;;;;;4435398;32;20061;-62
2023/09/23 00:40:38;;;;;;;0.47;0.45;;;15.20;99.90;;;;;;4439073;32;20065;-63
2023/09/23 00:43:05;;;;;;;0.55;0.55;;;15.20;99.90;;;;;;4435546;32;20084;-61
2023/09/23 00:45:31;;;;;;;1.42;1.10;;;15.30;99.90;;;;;;4435751;32;20093;-62
2023/09/23 00:47:58;;;;;;;0.40;0.40;;;15.30;99.90;;;;;;4437367;32;20089;-62
2023/09/23 00:50:24;;;;;;;0.40;0.40;;;15.30;99.90;;;;;;4437929;32;20054;-61
2023/09/23 00:52:51;;;;;;;0.30;0.30;;;15.20;99.90;;;;;;4437237;32;20077;-63
2023/09/23 00:55:18;;;;;;;0.40;0.40;;;15.10;99.90;;;;;;4438148;32;20073;-63
2023/09/23 00:57:47;;;;;;;0.43;0.43;;;15.20;99.90;;;;;;4439912;32;20068;-62
2023/09/23 01:00:14;;;;;;;0.30;0.30;;;15.10;99.90;;;;;;4438794;32;20066;-63
2023/09/23 01:02:39;;;;;;;1.33;0.50;;;15.20;99.90;;;;;;4439029;32;20061;-62
2023/09/23 01:05:05;;;;;;;0.30;0.30;;;15.20;99.90;;;;;;4432399;32;20080;-62
2023/09/23 01:07:33;;;;;;;0.20;0.20;;;15.30;99.90;;;;;;4438623;32;20157;-63
2023/09/23 01:09:59;;;;;;;0.40;0.40;;;15.30;99.90;;;;;;4440673;32;20065;-62
2023/09/23 01:12:25;;;;;;;0.30;0.30;;;15.30;99.90;;;;;;4431478;32;20968;-59
2023/09/23 01:14:51;;;;;;;0.22;0.22;;;15.30;99.90;;;;;;4433451;32;20794;-63
2023/09/23 01:17:16;;;;;;;0.30;0.30;;;15.30;99.90;;;;;;4439010;32;20061;-62
2023/09/23 01:19:41;;;;;;;0.50;0.50;;;15.30;99.90;;;;;;4430525;32;20129;-61
2023/09/23 01:22:08;;;;;;;0.35;0.35;;;15.20;99.90;;;;;;4438806;32;20167;-63
2023/09/23 01:24:34;;;;;;;0.30;0.30;;;15.20;99.90;;;;;;4438890;32;20508;-61
2023/09/23 01:27:00;;;;;;;0.30;0.30;;;15.20;99.90;;;;;;4428707;32;20194;-63
2023/09/23 01:29:26;;;;;;;0.47;0.47;;;15.10;99.90;;;;;;4423633;32;20132;-63
2023/09/23 01:32:10;;;;;;;0.20;0.20;;;15.20;99.90;;;;;;4426961;32;21346;-62
2023/09/23 01:34:36;;;;;;;0.30;0.30;;;15.20;99.90;;;;;;4424717;32;20116;-63
2023/09/23 01:37:01;;;;;;;0.50;0.50;;;15.20;99.90;;;;;;4433107;32;20522;-62
2023/09/23 01:39:26;;;;;;;0.40;0.40;;;15.20;99.90;;;;;;4430808;32;20446;-63
2023/09/23 01:41:54;;;;;;;0.50;0.50;;;15.00;99.90;;;;;;4433979;32;20098;-63
2023/09/23 01:44:20;;;;;;;0.37;0.37;;;15.00;99.90;;;;;;4435947;32;20109;-61
2023/09/23 01:46:46;;;;;;;0.28;0.28;;;15.00;99.90;;;;;;4439191;32;20081;-60
2023/09/23 01:49:12;;;;;;;0.40;0.40;;;15.00;99.90;;;;;;4437936;32;20086;-61
2023/09/23 01:51:37;;;;;;;0.30;0.30;;;15.00;99.90;;;;;;4438610;32;21083;-61
2023/09/23 01:54:03;;;;;;;0.40;0.40;;;15.00;99.90;;;;;;4435682;32;20185;-60
2023/09/23 01:56:30;;;;;;;0.30;0.30;;;15.00;99.90;;;;;;4438964;32;20091;-61
2023/09/23 01:58:56;;;;;;;0.37;0.37;;;14.90;99.90;;;;;;4438781;32;20418;-61
2023/09/23 02:01:21;;;;;;;0.40;0.40;;;15.00;99.90;;;;;;4438863;32;20110;-60
2023/09/23 02:03:47;;;;;;;3.05;1.40;;;15.10;99.90;;;;;;4438623;32;20111;-60
2023/09/23 02:06:12;;;;;;;0.30;0.30;;;15.00;99.90;;;;;;4439758;32;20528;-60
2023/09/23 02:08:38;;;;;;;0.30;0.30;;;15.00;99.90;;;;;;4439763;32;20591;-60
2023/09/23 02:11:03;;;;;;;0.22;0.22;;;15.00;99.90;;;;;;4439412;32;20093;-60
2023/09/23 02:13:29;;;;;;;0.40;0.40;;;15.00;99.90;;;;;;4439434;32;20475;-60
2023/09/23 02:15:57;;;;;;;0.55;0.55;;;15.00;99.90;;;;;;4440304;32;20414;-60
2023/09/23 02:18:23;;;;;;;0.40;0.40;;;15.00;99.90;;;;;;4437736;32;20083;-60
2023/09/23 02:20:50;;;;;;;1.08;0.55;;;15.10;99.90;;;;;;4441594;32;20222;-60
2023/09/23 02:23:15;;;;;;;0.40;0.40;;;15.00;99.90;;;;;;4438005;32;20089;-62
2023/09/23 02:25:41;;;;;;;0.30;0.30;;;14.90;99.90;;;;;;4437452;32;20069;-60
2023/09/23 02:28:07;;;;;;;5.62;0.40;;;14.90;99.90;;;;;;4436450;32;20089;-61
2023/09/23 02:30:32;;;;;;;0.20;0.20;;;14.90;99.90;;;;;;4435929;32;20309;-61
2023/09/23 02:32:58;;;;;;;0.35;0.35;;;14.80;99.90;;;;;;4439046;32;20080;-61
2023/09/23 02:35:25;;;;;;;0.45;0.45;;;14.70;99.90;;;;;;4439136;32;20085;-61
2023/09/23 02:37:50;;;;;;;0.30;0.30;;;14.60;99.90;;;;;;4440802;32;20135;-59
2023/09/23 02:40:17;;;;;;;0.50;0.50;;;14.60;99.90;;;;;;4439488;32;20408;-59
2023/09/23 02:42:46;;;;;;;0.40;0.40;;;14.60;99.90;;;;;;4437346;32;20092;-60
2023/09/23 02:45:13;;;;;;;0.62;0.60;;;14.60;99.90;;;;;;4437412;32;20073;-62
2023/09/23 02:47:40;;;;;;;0.25;0.25;;;14.60;99.90;;;;;;4438861;32;20123;-62
2023/09/23 02:50:10;;;;;;;0.30;0.30;;;14.60;99.90;;;;;;4437075;32;20101;-60
2023/09/23 02:52:38;;;;;;;0.40;0.40;;;14.60;99.90;;;;;;4437234;32;20081;-61
2023/09/23 02:55:07;;;;;;;0.50;0.50;;;14.60;99.90;;;;;;4440533;32;20069;-61
2023/09/23 02:57:36;;;;;;;0.20;0.20;;;14.60;99.90;;;;;;4438074;32;20537;-60
2023/09/23 03:00:13;;;;;;;0.37;0.37;;;14.50;99.90;;;;;;4437267;32;20598;-61
2023/09/23 03:02:34;;;;;;;0.50;0.50;;;14.50;99.90;;;;;;4438831;32;20130;-61
2023/09/23 03:05:01;;;;;;;0.22;0.20;;;14.50;99.90;;;;;;4439447;32;20076;-60
2023/09/23 03:07:33;;;;;;;0.25;0.25;;;14.50;99.90;;;;;;4440300;32;20069;-61
2023/09/23 03:10:01;;;;;;;0.35;0.35;;;14.50;99.90;;;;;;4441601;32;20499;-60
2023/09/23 03:12:29;;;;;;;0.40;0.40;;;14.50;99.90;;;;;;4437818;32;20125;-60
2023/09/23 03:14:56;;;;;;;0.30;0.30;;;14.50;99.90;;;;;;4440012;32;20122;-60
2023/09/23 03:17:22;;;;;;;0.20;0.20;;;14.50;99.90;;;;;;4438516;32;20092;-62
2023/09/23 03:19:51;;;;;;;0.30;0.30;;;14.50;99.90;;;;;;4439343;32;20085;-58
2023/09/23 03:22:19;;;;;;;0.40;0.40;;;14.40;99.90;;;;;;4436717;32;20136;-60
2023/09/23 03:24:48;;;;;;;0.22;0.22;;;14.50;99.90;;;;;;4439060;32;20077;-60
2023/09/23 03:27:13;;;;;;;0.22;0.22;;;14.40;99.90;;;;;;4436708;32;20093;-61
2023/09/23 03:29:40;;;;;;;0.25;0.25;;;14.50;99.90;;;;;;4439100;32;20089;-60
2023/09/23 03:32:06;;;;;;;0.43;0.40;;;14.60;99.90;;;;;;4439193;32;20107;-61
2023/09/23 03:34:32;;;;;;;0.30;0.30;;;14.60;99.90;;;;;;4437278;32;20126;-61
2023/09/23 03:36:58;;;;;;;0.30;0.30;;;14.50;99.90;;;;;;4439775;32;20088;-60
2023/09/23 03:39:24;;;;;;;0.20;0.20;;;14.60;99.90;;;;;;4438794;32;20092;-58
2023/09/23 03:41:50;;;;;;;0.30;0.30;;;14.50;99.90;;;;;;4439314;32;20069;-61
2023/09/23 03:44:16;;;;;;;0.28;0.28;;;14.50;99.90;;;;;;4438880;32;20073;-61
2023/09/23 03:46:45;;;;;;;0.30;0.30;;;14.50;99.90;;;;;;4439582;32;20081;-60
2023/09/23 03:49:10;;;;;;;0.30;0.30;;;14.60;99.90;;;;;;4439809;32;20074;-59
2023/09/23 03:51:37;;;;;;;0.30;0.30;;;14.50;99.90;;;;;;4439668;32;20443;-59
2023/09/23 03:54:03;;;;;;;0.30;0.30;;;14.50;99.90;;;;;;4436523;32;20093;-60
2023/09/23 03:56:29;;;;;;;0.30;0.30;;;14.50;99.90;;;;;;4440821;32;20077;-60
2023/09/23 03:58:55;;;;;;;7.53;2.60;;;14.50;99.90;;;;;;4437531;32;20646;-60
2023/09/23 04:01:23;;;;;;;0.30;0.30;;;14.50;99.90;;;;;;4438745;32;20454;-60
2023/09/23 04:03:51;;;;;;;0.28;0.28;;;14.40;99.90;;;;;;4440053;32;20085;-60
2023/09/23 04:06:17;;;;;;;0.20;0.20;;;14.40;99.90;;;;;;4437459;32;20465;-62
2023/09/23 04:08:43;;;;;;;0.30;0.30;;;14.40;99.90;;;;;;4438295;32;20124;-62
2023/09/23 04:11:10;;;;;;;0.30;0.30;;;14.40;99.90;;;;;;4439645;32;20076;-62
2023/09/23 04:13:36;;;;;;;0.30;0.30;;;14.40;99.90;;;;;;4436005;32;20118;-63
2023/09/23 04:16:02;;;;;;;0.28;0.28;;;14.40;99.90;;;;;;4438672;32;20077;-62
2023/09/23 04:18:31;;;;;;;0.52;0.40;;;14.30;99.90;;;;;;4440048;32;20077;-61
2023/09/23 04:20:57;;;;;;;0.30;0.30;;;14.40;99.90;;;;;;4437503;32;20065;-62
2023/09/23 04:23:22;;;;;;;0.32;0.32;;;14.40;99.90;;;;;;4436312;32;20089;-63
2023/09/23 04:25:50;;;;;;;0.30;0.30;;;14.40;99.90;;;;;;4438558;32;20161;-63
2023/09/23 04:28:17;;;;;;;0.37;0.37;;;14.40;99.90;;;;;;4437713;32;20081;-62
2023/09/23 04:30:43;;;;;;;0.30;0.30;;;14.40;99.90;;;;;;4437301;32;20171;-63
2023/09/23 04:33:08;;;;;;;0.52;0.52;;;14.30;99.90;;;;;;4438089;32;20567;-63
2023/09/23 04:35:35;;;;;;;0.20;0.20;;;14.30;99.90;;;;;;4438168;32;20089;-62
2023/09/23 04:38:01;;;;;;;0.20;0.20;;;14.30;99.90;;;;;;4441284;32;20084;-62
2023/09/23 04:40:26;;;;;;;0.30;0.30;;;14.20;99.90;;;;;;4439565;32;20082;-63
2023/09/23 04:42:52;;;;;;;0.20;0.20;;;14.30;99.90;;;;;;4438951;32;20084;-63
2023/09/23 04:45:19;;;;;;;0.22;0.22;;;14.20;99.90;;;;;;4437047;32;20096;-62
2023/09/23 04:47:50;;;;;;;6.18;1.20;;;14.30;99.90;;;;;;4440316;32;20056;-63
2023/09/23 04:50:17;;;;;;;0.40;0.40;;;14.20;99.90;;;;;;4438705;32;20081;-60
2023/09/23 04:52:42;;;;;;;0.30;0.30;;;14.30;99.90;;;;;;4437446;32;20528;-62
2023/09/23 04:55:08;;;;;;;11.77;0.60;;;14.20;99.90;;;;;;4440359;32;20093;-63
2023/09/23 04:57:34;;;;;;;0.30;0.30;;;14.20;99.90;;;;;;4439274;32;20536;-62
2023/09/23 04:59:59;;;;;;;0.30;0.30;;;14.20;99.90;;;;;;4440553;32;20072;-62
2023/09/23 05:02:26;;;;;;;0.30;0.30;;;14.10;99.90;;;;;;4439146;32;20080;-63
2023/09/23 05:04:53;;;;;;;0.22;0.22;;;14.10;99.90;;;;;;4440415;32;20092;-62
2023/09/23 05:07:20;;;;;;;0.30;0.30;;;14.10;99.90;;;;;;4441516;32;20060;-62
2023/09/23 05:09:45;;;;;;;0.20;0.20;;;14.10;99.90;;;;;;4440408;32;20093;-59
2023/09/23 05:12:11;;;;;;;0.40;0.40;;;14.00;99.90;;;;;;4439881;32;20061;-63
2023/09/23 05:14:37;;;;;;;0.30;0.30;;;14.00;99.90;;;;;;4439855;32;20187;-63
2023/09/23 05:17:04;;;;;;;0.75;0.52;;;14.10;99.90;;;;;;4439847;32;20152;-60
2023/09/23 05:19:31;;;;;;;0.35;0.35;;;14.00;99.90;;;;;;4439136;32;20356;-60
2023/09/23 05:21:57;;;;;;;0.35;0.35;;;14.00;99.90;;;;;;4439842;32;20089;-61
2023/09/23 05:24:26;;;;;;;0.73;0.73;;;14.00;99.90;;;;;;4439669;32;20533;-62
2023/09/23 05:26:54;;;;;;;0.30;0.30;;;14.00;99.90;;;;;;4437985;32;20081;-62
2023/09/23 05:29:21;;;;;;;0.30;0.30;;;13.90;99.90;;;;;;4437996;32;20061;-62
2023/09/23 05:31:46;;;;;;;0.20;0.20;;;13.90;99.90;;;;;;4438251;32;20073;-61
2023/09/23 05:34:12;;;;;;;0.30;0.30;;;13.90;99.90;;;;;;4427281;32;20068;-60
2023/09/23 05:36:37;;;;;;;0.22;0.22;;;13.90;99.90;;;;;;4440502;32;20156;-61
2023/09/23 05:39:13;;;;;;;0.20;0.20;;;13.90;99.90;;;;;;4442054;32;20073;-60
2023/09/23 05:41:39;;;;;;;0.30;0.30;;;13.80;99.90;;;;;;4440110;32;20081;-61
2023/09/23 05:44:05;;;;;;;0.30;0.30;;;13.70;99.90;;;;;;4440470;32;20139;-58
2023/09/23 05:46:30;;;;;;;0.20;0.20;;;13.70;99.90;;;;;;4440592;32;20085;-61
2023/09/23 05:48:57;;;;;;;0.20;0.20;;;13.70;99.90;;;;;;4440505;32;20093;-60
2023/09/23 05:51:22;;;;;;;0.30;0.30;;;13.70;99.90;;;;;;4440905;32;20500;-61
2023/09/23 05:53:48;;;;;;;0.30;0.30;;;13.80;99.90;;;;;;4439652;32;20088;-61
2023/09/23 05:56:14;;;;;;;0.30;0.30;;;13.90;99.90;;;;;;4439946;32;20556;-60
2023/09/23 05:58:39;;;;;;;0.30;0.30;;;13.90;99.90;;;;;;4439097;32;20097;-60
2023/09/23 06:01:05;;;;;;;0.20;0.20;;;13.90;99.90;;;;;;4438416;32;20077;-61
2023/09/23 06:03:30;;;;;;;0.30;0.30;;;13.90;99.90;;;;;;4439370;32;20081;-61
2023/09/23 06:05:56;;;;;;;0.30;0.30;;;13.90;99.90;;;;;;4441661;32;20136;-58
2023/09/23 06:08:21;;;;;;;0.20;0.20;;;14.00;99.90;;;;;;4440871;32;20070;-61
2023/09/23 06:10:47;;;;;;;0.35;0.30;;;13.90;99.90;;;;;;4439389;32;21127;-61
2023/09/23 06:13:13;;;;;;;0.20;0.20;;;14.00;99.90;;;;;;4438600;32;20069;-59
2023/09/23 06:15:38;;;;;;;0.40;0.40;;;14.00;99.90;;;;;;4441741;32;20426;-60
2023/09/23 06:18:06;;;;;;;0.30;0.30;;;14.10;99.90;;;;;;4440040;32;20133;-60
2023/09/23 06:20:33;;;;;;;0.20;0.20;;;14.20;99.90;;;;;;4439778;32;20065;-60
2023/09/23 06:22:58;;;;;;;0.30;0.30;;;14.20;99.90;;;;;;4440482;32;20416;-60
2023/09/23 06:25:24;;;;;;;0.20;0.20;;;14.20;99.90;;;;;;4441106;32;20640;-61
2023/09/23 06:27:49;;;;;;;3.75;0.50;;;14.30;99.90;;;;;;4437645;32;20121;-61
2023/09/23 06:30:15;;;;;;;0.30;0.30;;;14.20;99.90;;;;;;4438478;32;20123;-62
2023/09/23 06:32:41;;;;;;;0.30;0.30;;;14.20;99.90;;;;;;4440330;32;20501;-62
2023/09/23 06:35:08;;;;;;;0.30;0.30;;;14.20;99.90;;;;;;4438870;32;20098;-62
2023/09/23 06:37:33;;;;;;;0.30;0.30;;;14.20;99.90;;;;;;4441565;32;20708;-61
2023/09/23 06:39:58;;;;;;;0.30;0.30;;;14.20;99.90;;;;;;4437884;32;20101;-61
2023/09/23 06:42:24;;;;;;;0.43;0.43;;;14.20;99.90;;;;;;4439500;32;20135;-63
2023/09/23 06:44:49;;;;;;;0.20;0.20;;;14.30;99.90;;;;;;4437241;32;20101;-62
2023/09/23 06:47:15;;;;;;;0.40;0.40;;;14.30;99.90;;;;;;4438157;32;20093;-62
2023/09/23 06:49:40;;;;;;;0.30;0.30;;;14.30;99.90;;;;;;4439024;32;20433;-61
2023/09/23 06:52:06;;;;;;;0.40;0.40;;;14.30;99.90;;;;;;4439008;32;20105;-63
2023/09/23 06:54:31;;;;;;;0.30;0.30;;;14.40;99.90;;;;;;4437984;32;20072;-60
2023/09/23 06:56:57;;;;;;;2.40;1.27;;;14.50;99.90;;;;;;4439766;32;20078;-62
2023/09/23 06:59:22;;;;;;;1.10;0.77;;;14.60;99.90;;;;;;4438332;32;20586;-61
2023/09/23 07:01:48;;;;;;;0.30;0.30;;;14.60;99.90;;;;;;4438237;32;20077;-62
2023/09/23 07:04:14;;;;;;;0.30;0.30;;;14.70;99.90;;;;;;4437913;32;20076;-63
2023/09/23 07:06:40;;;;;;;0.30;0.30;;;14.70;99.90;;;;;;4440503;32;20152;-62
2023/09/23 07:09:07;;;;;;;0.28;0.28;;;14.80;99.90;;;;;;4425180;32;20081;-62
2023/09/23 07:11:32;;;;;;;0.30;0.30;;;14.80;99.90;;;;;;4438088;32;20088;-63
2023/09/23 07:14:00;;;;;;;0.25;0.25;;;14.80;99.90;;;;;;4437204;32;20402;-63
2023/09/23 07:16:26;;;;;;;0.30;0.30;;;14.80;99.90;;;;;;4438847;32;20078;-61
2023/09/23 07:18:52;;;;;;;0.30;0.30;;;14.90;99.90;;;;;;4437853;32;20065;-60
2023/09/23 07:21:18;;;;;;;0.30;0.30;;;14.90;99.90;;;;;;4424735;32;20504;-58
2023/09/23 07:23:43;;;;;;;0.30;0.30;;;14.90;99.90;;;;;;4438118;32;20449;-60
2023/09/23 07:26:09;;;;;;;17.12;0.85;;;15.00;99.90;;;;;;4436206;32;20092;-61
2023/09/23 07:28:34;;;;;;;0.30;0.30;;;15.00;99.90;;;;;;4435601;32;20077;-62
2023/09/23 07:31:00;;;;;;;0.45;0.45;;;15.00;99.90;;;;;;4435187;32;20232;-62
2023/09/23 07:33:26;;;;;;;1.85;0.47;;;15.00;99.90;;;;;;4433928;32;20543;-62
2023/09/23 07:35:51;;;;;;;0.20;0.20;;;15.00;99.90;;;;;;4436799;32;20074;-60
2023/09/23 07:38:17;;;;;;;0.20;0.20;;;15.10;99.90;;;;;;4438917;32;20393;-60
2023/09/23 07:40:43;;;;;;;0.57;0.40;;;15.20;99.90;;;;;;4438156;32;20552;-60
2023/09/23 07:43:08;;;;;;;0.20;0.20;;;15.20;99.90;;;;;;4438768;32;20057;-60
2023/09/23 07:45:34;;;;;;;0.30;0.30;;;15.20;99.90;;;;;;4439408;32;20065;-59
2023/09/23 07:47:59;;;;;;;0.20;0.20;;;15.20;99.90;;;;;;4435613;32;20528;-60
2023/09/23 07:50:25;;;;;;;0.30;0.30;;;15.20;99.90;;;;;;4439738;32;20077;-60
2023/09/23 07:52:50;;;;;;;0.30;0.30;;;15.30;99.90;;;;;;4439830;32;20125;-60
2023/09/23 07:55:16;;;;;;;0.20;0.20;;;15.40;99.90;;;;;;4439692;32;20077;-61
2023/09/23 07:57:42;;;;;;;0.30;0.30;;;15.50;99.90;;;;;;4439617;32;20127;-60
2023/09/23 08:02:36;;;;;;;0.20;0.20;;;15.60;99.90;;;;;;4438074;32;20057;-61
2023/09/23 08:05:03;;;;;;;0.30;0.30;;;15.70;99.90;;;;;;4438406;32;20061;-60
2023/09/23 08:07:30;;;;;;;0.20;0.20;;;15.80;99.90;;;;;;4441773;32;20097;-60
2023/09/23 08:09:56;;;;;;;0.30;0.30;;;15.80;99.90;;;;;;4426581;32;20497;-61
2023/09/23 08:12:22;;;;;;;0.30;0.30;;;15.80;99.90;;;;;;4440162;32;20086;-60
2023/09/23 08:14:47;;;;;;;0.20;0.20;;;15.80;99.90;;;;;;4440726;32;20066;-61
2023/09/23 08:17:14;;;;;;;0.30;0.30;;;15.90;99.90;;;;;;4441592;32;20065;-60
2023/09/23 08:19:40;;;;;;;0.30;0.30;;;15.90;99.90;;;;;;4440623;32;20491;-60
2023/09/23 08:22:05;;;;;;;0.20;0.20;;;16.00;99.90;;;;;;4439847;32;20147;-61
2023/09/23 08:24:31;;;;;;;1.85;0.90;;;16.10;99.90;;;;;;4440663;32;20427;-61
2023/09/23 08:26:56;;;;;;;0.20;0.20;;;16.20;99.90;;;;;;4439153;32;20128;-62
2023/09/23 08:29:23;;;;;;;0.52;0.52;;;16.10;99.90;;;;;;4436944;32;20147;-61
2023/09/23 08:31:49;;;;;;;0.30;0.30;;;16.10;99.90;;;;;;4441530;32;20054;-61
2023/09/23 08:34:17;;;;;;;0.20;0.20;;;16.10;99.90;;;;;;4438048;32;20069;-61
2023/09/23 08:36:42;;;;;;;0.25;0.25;;;16.20;99.90;;;;;;4439440;32;20139;-60
2023/09/23 08:39:09;;;;;;;0.30;0.30;;;16.20;99.90;;;;;;4437858;32;20547;-60
2023/09/23 08:41:36;;;;;;;1.75;0.82;;;16.30;99.90;;;;;;4441366;32;20081;-61
2023/09/23 08:44:05;;;;;;;1.52;0.93;;;16.30;99.90;;;;;;4438141;32;20085;-60
2023/09/23 08:46:31;;;;;;;0.20;0.20;;;16.20;99.90;;;;;;4440306;32;20092;-63
2023/09/23 08:48:58;;;;;;;0.30;0.30;;;16.20;99.90;;;;;;4439272;32;20543;-62
2023/09/23 08:51:25;;;;;;;0.20;0.20;;;16.20;99.90;;;;;;4439240;32;20069;-62
2023/09/23 08:53:52;;;;;;;0.30;0.30;;;16.20;99.90;;;;;;4437916;32;20917;-63
2023/09/23 08:56:19;;;;;;;0.43;0.43;;;16.20;99.90;;;;;;4436438;32;20085;-63
2023/09/23 08:58:45;;;;;;;0.30;0.30;;;16.20;99.90;;;;;;4439766;32;20172;-61
2023/09/23 09:01:11;;;;;;;0.30;0.30;;;16.20;99.90;;;;;;4437946;32;20131;-62
2023/09/23 09:03:37;;;;;;;0.30;0.30;;;16.30;99.90;;;;;;4439340;32;20188;-63
2023/09/23 09:06:03;;;;;;;0.20;0.20;;;16.10;99.90;;;;;;4436528;32;20077;-62
2023/09/23 09:08:31;;;;;;;1.10;0.68;;;16.10;99.90;;;;;;4438778;32;20421;-61
2023/09/23 09:10:59;;;;;;;0.20;0.20;;;16.00;99.90;;;;;;4440458;32;20498;-63
2023/09/23 09:13:24;;;;;;;0.20;0.20;;;16.10;99.90;;;;;;4434466;32;20744;-63
2023/09/23 09:15:51;;;;;;;0.30;0.30;;;16.00;99.90;;;;;;4438693;32;20084;-62
2023/09/23 09:18:17;;;;;;;0.30;0.30;;;16.00;99.90;;;;;;4438131;32;20178;-63
2023/09/23 09:20:42;;;;;;;0.68;0.68;;;16.00;99.90;;;;;;4438831;32;20127;-62
2023/09/23 09:23:12;;;;;;;0.40;0.40;;;16.00;99.90;;;;;;4436779;32;20404;-62
2023/09/23 09:25:37;;;;;;;0.30;0.30;;;16.00;99.90;;;;;;4436584;32;20060;-63
2023/09/23 09:28:03;;;;;;;0.20;0.20;;;16.00;99.90;;;;;;4435746;32;20637;-63
2023/09/23 09:30:29;;;;;;;0.30;0.30;;;16.10;99.90;;;;;;4437817;32;20069;-62
2023/09/23 09:33:00;;;;;;;0.40;0.40;;;16.10;99.90;;;;;;4436256;32;20339;-62
2023/09/23 09:35:26;;;;;;;0.52;0.45;;;16.10;99.90;;;;;;4436488;32;20143;-63
2023/09/23 09:37:56;;;;;;;0.30;0.30;;;16.20;99.90;;;;;;4438966;32;20085;-62
2023/09/23 09:40:22;;;;;;;0.30;0.30;;;16.20;99.90;;;;;;4436677;32;20567;-63
2023/09/23 09:42:54;;;;;;;0.50;0.50;;;16.30;99.90;;;;;;4437334;32;20069;-62
2023/09/23 09:45:20;;;;;;;0.37;0.37;;;16.30;99.90;;;;;;4436988;32;20587;-59
2023/09/23 09:47:48;;;;;;;0.30;0.30;;;16.40;99.90;;;;;;4435256;32;20088;-62
2023/09/23 09:50:14;;;;;;;1.60;0.47;;;16.60;99.90;;;;;;4438877;32;20496;-63
2023/09/23 09:52:43;;;;;;;0.30;0.30;;;16.80;99.90;;;;;;4436719;32;20068;-60
2023/09/23 09:55:14;;;;;;;0.30;0.30;;;16.90;99.90;;;;;;4437683;32;20082;-63
2023/09/23 09:57:41;;;;;;;0.40;0.40;;;17.00;99.90;;;;;;4419250;32;20161;-59
2023/09/23 10:02:37;;;;;;;0.30;0.30;;;16.90;99.90;;;;;;4437003;32;20183;-61
2023/09/23 10:05:03;;;;;;;0.28;0.28;;;16.90;99.90;;;;;;4436465;32;20465;-61
2023/09/23 10:07:53;;;;;;;0.30;0.30;;;16.80;99.90;;;;;;4438073;32;20093;-61
2023/09/23 10:10:31;;;;;;;2.87;0.50;;;16.60;99.90;;;;;;4436189;32;20089;-61
2023/09/23 10:13:05;;;;;;;0.40;0.40;;;16.60;99.90;;;;;;4438211;32;20159;-61
2023/09/23 10:15:36;;;;;;;0.30;0.30;;;16.60;99.90;;;;;;4437814;32;20767;-60
2023/09/23 10:18:07;;;;;;;0.30;0.30;;;16.60;99.90;;;;;;4438596;32;20094;-60
2023/09/23 10:20:33;;;;;;;0.40;0.40;;;16.60;99.90;;;;;;4439205;32;20073;-61
2023/09/23 10:22:59;;;;;;;0.30;0.30;;;16.70;99.90;;;;;;4435762;32;20610;-61
2023/09/23 10:25:37;;;;;;;0.30;0.30;;;16.80;99.90;;;;;;4434837;32;20194;-61
2023/09/23 10:28:04;;;;;;;0.30;0.30;;;17.00;99.90;;;;;;4434542;32;20438;-61
2023/09/23 10:30:30;;;;;;;0.40;0.40;;;17.10;99.90;;;;;;4437114;32;20151;-60
2023/09/23 10:32:55;;;;;;;0.30;0.30;;;17.40;99.90;;;;;;4437108;32;20539;-61
2023/09/23 10:35:23;;;;;;;0.40;0.40;;;17.60;99.90;;;;;;4437408;32;20115;-62
2023/09/23 10:37:48;;;;;;;0.30;0.30;;;17.50;99.90;;;;;;4437378;32;20112;-62
2023/09/23 10:40:17;;;;;;;0.30;0.30;;;17.60;99.90;;;;;;4438766;32;20413;-60
2023/09/23 10:42:46;;;;;;;0.32;0.32;;;17.60;99.90;;;;;;4436259;32;20112;-61
2023/09/23 10:45:13;;;;;;;0.35;0.35;;;17.60;99.90;;;;;;4423517;32;20473;-62
2023/09/23 10:47:39;;;;;;;0.30;0.30;;;17.60;99.90;;;;;;4438095;32;20077;-61
2023/09/23 10:50:07;;;;;;;0.35;0.35;;;17.50;99.90;;;;;;4437007;32;20077;-61
2023/09/23 10:52:33;;;;;;;0.30;0.30;;;17.50;99.90;;;;;;4423174;32;20084;-61
2023/09/23 10:54:58;;;;;;;0.20;0.20;;;17.50;99.90;;;;;;4437777;32;20126;-61
2023/09/23 10:57:24;;;;;;;0.60;0.60;;;17.40;99.90;;;;;;4437098;32;20104;-61
2023/09/23 10:59:52;;;;;;;0.30;0.30;;;17.40;99.90;;;;;;4438009;32;20143;-61
2023/09/23 11:02:20;;;;;;;0.30;0.30;;;17.50;99.90;;;;;;4436471;32;20133;-61
2023/09/23 11:04:48;;;;;;;0.30;0.30;;;17.40;99.90;;;;;;4437512;32;20515;-62
2023/09/23 11:07:14;;;;;;;0.30;0.30;;;17.30;99.90;;;;;;4438769;32;20089;-64
2023/09/23 11:09:41;;;;;;;0.28;0.28;;;17.30;99.90;;;;;;4437294;32;20507;-63
2023/09/23 11:12:12;;;;;;;0.30;0.30;;;17.30;99.90;;;;;;4437356;32;20072;-63
2023/09/23 11:14:38;;;;;;;0.32;0.32;;;17.70;99.90;;;;;;4437291;32;20065;-62
2023/09/23 11:17:03;;;;;;;0.30;0.30;;;18.00;99.90;;;;;;4437764;32;20564;-63
2023/09/23 11:19:29;;;;;;;0.28;0.28;;;18.20;99.90;;;;;;4435690;32;20105;-63
2023/09/23 11:21:54;;;;;;;0.30;0.30;;;18.40;99.90;;;;;;4426662;32;20100;-62
2023/09/23 11:24:21;;;;;;;0.25;0.25;;;18.80;99.90;;;;;;4436374;32;20729;-64
2023/09/23 11:26:47;;;;;;;0.52;0.37;;;18.60;99.90;;;;;;4437168;32;20069;-62
2023/09/23 11:29:13;;;;;;;0.50;0.50;;;19.10;99.90;;;;;;4431934;32;20187;-65
2023/09/23 11:31:39;;;;;;;0.20;0.20;;;19.30;99.90;;;;;;4428590;32;20555;-64
2023/09/23 11:34:04;;;;;;;0.20;0.20;;;19.60;99.90;;;;;;4434437;32;20096;-63
2023/09/23 11:36:30;;;;;;;0.40;0.40;;;19.60;99.90;;;;;;4436946;32;20140;-64
2023/09/23 11:38:55;;;;;;;0.20;0.20;;;19.60;99.90;;;;;;4438178;32;20085;-63
2023/09/23 11:41:21;;;;;;;0.20;0.20;;;19.80;99.90;;;;;;4436342;32;20077;-64
2023/09/23 11:43:50;;;;;;;0.10;0.10;;;19.90;99.90;;;;;;4434065;32;20060;-64
2023/09/23 11:46:19;;;;;;;0.32;0.32;;;19.90;99.90;;;;;;4438001;32;20527;-62
2023/09/23 11:48:48;;;;;;;0.20;0.20;;;19.60;99.90;;;;;;4435606;32;86106;-64
2023/09/23 11:51:14;;;;;;;0.30;0.30;;;19.80;99.90;;;;;;4436734;32;20105;-64
2023/09/23 11:53:41;;;;;;;0.13;0.13;;;20.00;99.90;;;;;;4434349;32;20191;-64
2023/09/23 11:56:06;;;;;;;0.35;0.30;;;20.50;99.90;;;;;;4436482;32;20097;-61
2023/09/23 11:58:32;;;;;;;0.17;0.17;;;21.10;99.90;;;;;;4435668;32;20533;-64
2023/09/23 12:00:57;;;;;;;0.30;0.30;;;20.90;99.90;;;;;;4435946;32;20076;-63
2023/09/23 12:03:25;;;;;;;0.20;0.20;;;20.50;99.90;;;;;;4434774;32;20097;-64
2023/09/23 12:05:51;;;;;;;0.85;0.30;;;20.10;99.90;;;;;;4436700;32;20572;-64
2023/09/23 12:08:16;;;;;;;0.20;0.20;;;19.70;99.90;;;;;;4437223;32;20203;-64
2023/09/23 12:10:42;;;;;;;0.20;0.20;;;19.50;99.90;;;;;;4440636;32;20512;-64
2023/09/23 12:13:07;;;;;;;0.40;0.40;;;19.50;99.90;;;;;;4433218;32;20493;-63
2023/09/23 12:15:34;;;;;;;0.20;0.20;;;19.30;99.90;;;;;;4437506;32;20057;-61
2023/09/23 12:17:59;;;;;;;0.20;0.20;;;19.20;99.90;;;;;;4435085;32;20843;-62
2023/09/23 12:20:26;;;;;;;0.30;0.30;;;19.20;99.90;;;;;;4435533;32;20124;-61
2023/09/23 12:22:52;;;;;;;0.20;0.20;;;19.20;99.90;;;;;;4436405;32;20065;-61
2023/09/23 12:25:18;;;;;;;0.25;0.25;;;19.10;99.90;;;;;;4437422;32;20431;-61
2023/09/23 12:27:44;;;;;;;0.30;0.30;;;19.00;99.90;;;;;;4438393;32;20093;-62
2023/09/23 12:30:10;;;;;;;0.30;0.30;;;18.80;99.90;;;;;;4435710;32;20069;-62
2023/09/23 12:32:35;;;;;;;0.20;0.20;;;19.00;99.90;;;;;;4434885;32;20551;-63
2023/09/23 12:35:01;;;;;;;0.20;0.20;;;19.80;99.90;;;;;;4435859;32;20533;-61
2023/09/23 12:37:27;;;;;;;0.10;0.10;;;20.40;99.90;;;;;;4436667;32;20077;-62
2023/09/23 12:39:55;;;;;;;0.20;0.20;;;20.80;99.90;;;;;;4435862;32;20132;-62
2023/09/23 12:42:21;;;;;;;0.32;0.30;;;21.30;99.90;;;;;;4433924;32;20169;-61
2023/09/23 12:44:46;;;;;;;0.30;0.30;;;21.50;99.90;;;;;;4435186;32;20168;-59
2023/09/23 12:47:12;;;;;;;0.20;0.20;;;21.10;99.90;;;;;;4437113;32;20074;-62
2023/09/23 12:49:37;;;;;;;0.28;0.28;;;20.40;99.90;;;;;;4434694;32;20088;-62